Time;durP1;ratioP1;P1;durP2;ratioP2;P2;SDS_P1;SDS_P2;PMS_P1;PMS_P2;Temp;Humidity;BMP_temperature;BMP_pressure;BME280_temperature;BME280_humidity;BME280_pressure;Samples;Min_cycle;Max_cycle;Signal;HPM_P1;HPM_P2
2021/01/30 00:02:03;;;;;;;12.63;4.63;;;7.10;99.90;;;;;;4992083;28;20022;-61
2021/01/30 00:04:29;;;;;;;9.63;4.45;;;7.10;99.90;;;;;;5005105;28;20034;-63
2021/01/30 00:06:55;;;;;;;16.33;4.95;;;7.10;99.90;;;;;;4988832;28;20045;-60
2021/01/30 00:09:23;;;;;;;11.25;4.00;;;7.10;99.90;;;;;;4997626;28;20021;-61
2021/01/30 00:11:54;;;;;;;8.68;4.38;;;7.10;99.90;;;;;;4972239;28;20027;-59
2021/01/30 00:14:22;;;;;;;9.02;4.13;;;7.10;99.90;;;;;;4985415;28;20601;-62
2021/01/30 00:16:48;;;;;;;14.52;4.13;;;7.10;99.90;;;;;;4972088;28;20495;-59
2021/01/30 00:19:14;;;;;;;9.88;4.15;;;7.10;99.90;;;;;;4967098;28;20100;-64
2021/01/30 00:21:40;;;;;;;15.38;4.50;;;7.10;99.90;;;;;;4975917;28;20035;-64
2021/01/30 00:24:06;;;;;;;19.52;6.55;;;7.10;99.90;;;;;;4982554;28;20042;-62
2021/01/30 00:26:32;;;;;;;9.68;4.53;;;7.10;99.90;;;;;;5013595;28;20049;-63
2021/01/30 00:28:57;;;;;;;9.77;3.97;;;7.10;99.90;;;;;;4995923;28;20045;-61
2021/01/30 00:31:23;;;;;;;10.25;4.20;;;7.00;99.90;;;;;;4995011;28;20101;-61
2021/01/30 00:33:49;;;;;;;15.95;6.15;;;7.00;99.90;;;;;;4994986;28;20087;-62
2021/01/30 00:36:14;;;;;;;11.07;4.65;;;7.00;99.90;;;;;;4992243;28;20033;-62
2021/01/30 00:38:40;;;;;;;9.80;4.72;;;7.00;99.90;;;;;;5001984;28;20018;-61
2021/01/30 00:41:05;;;;;;;12.23;5.35;;;7.00;99.90;;;;;;4997367;28;20033;-60
2021/01/30 00:43:31;;;;;;;16.70;5.18;;;6.90;99.90;;;;;;4988897;28;20542;-62
2021/01/30 00:45:56;;;;;;;12.95;5.05;;;6.90;99.90;;;;;;4990877;28;20503;-62
2021/01/30 00:48:22;;;;;;;10.40;4.70;;;6.90;99.90;;;;;;4994369;28;20030;-63
2021/01/30 00:50:47;;;;;;;8.88;4.32;;;6.90;99.90;;;;;;4995269;28;20081;-62
2021/01/30 00:53:13;;;;;;;9.85;4.55;;;6.90;99.90;;;;;;4989298;28;20054;-61
2021/01/30 00:55:38;;;;;;;10.05;4.22;;;6.90;99.90;;;;;;4989732;28;20103;-59
2021/01/30 00:58:05;;;;;;;11.77;5.18;;;6.80;99.90;;;;;;5000717;28;20083;-62
2021/01/30 01:00:30;;;;;;;9.95;4.43;;;6.80;99.90;;;;;;4990325;28;20401;-61
2021/01/30 01:02:56;;;;;;;10.43;4.85;;;6.80;99.90;;;;;;4999282;28;20057;-60
2021/01/30 01:05:22;;;;;;;11.32;4.72;;;6.70;99.90;;;;;;4988461;28;20018;-60
2021/01/30 01:07:48;;;;;;;11.23;5.00;;;6.70;99.90;;;;;;4994175;28;20023;-65
2021/01/30 01:10:18;;;;;;;13.20;4.88;;;6.70;99.90;;;;;;4989084;28;20041;-59
2021/01/30 01:12:43;;;;;;;14.40;5.82;;;6.60;99.90;;;;;;4987792;28;20026;-61
2021/01/30 01:15:10;;;;;;;12.80;5.90;;;6.60;99.90;;;;;;4975954;28;20027;-62
2021/01/30 01:17:36;;;;;;;12.77;5.90;;;6.60;99.90;;;;;;4981214;28;20033;-58
2021/01/30 01:20:04;;;;;;;12.35;5.70;;;6.60;99.90;;;;;;4989604;28;20027;-62
2021/01/30 01:22:29;;;;;;;14.45;7.18;;;6.60;99.90;;;;;;4975807;28;20862;-62
2021/01/30 01:24:55;;;;;;;15.25;6.38;;;6.60;99.90;;;;;;4964331;28;20094;-62
2021/01/30 01:27:20;;;;;;;12.02;6.82;;;6.60;99.90;;;;;;4983238;28;20523;-62
2021/01/30 01:29:47;;;;;;;20.38;7.47;;;6.50;99.90;;;;;;4985788;28;20034;-62
2021/01/30 01:32:13;;;;;;;13.18;7.15;;;6.50;99.90;;;;;;4992818;28;20096;-62
2021/01/30 01:34:38;;;;;;;15.40;7.13;;;6.50;99.90;;;;;;4994417;28;20715;-63
2021/01/30 01:37:05;;;;;;;22.52;7.38;;;6.50;99.90;;;;;;4992779;28;20038;-64
2021/01/30 01:39:33;;;;;;;14.30;6.88;;;6.40;99.90;;;;;;4996498;28;20022;-61
2021/01/30 01:42:08;;;;;;;19.02;8.20;;;6.40;99.90;;;;;;4996978;28;20022;-59
2021/01/30 01:44:34;;;;;;;14.07;7.38;;;6.40;99.90;;;;;;4997767;28;20087;-60
2021/01/30 01:47:01;;;;;;;13.38;6.90;;;6.40;99.90;;;;;;4995044;28;20034;-62
2021/01/30 01:49:32;;;;;;;11.65;7.18;;;6.40;99.90;;;;;;4996896;28;20525;-62
2021/01/30 01:52:23;;;;;;;15.70;7.75;;;6.40;99.90;;;;;;4997537;28;20054;-61
2021/01/30 01:54:53;;;;;;;14.10;7.03;;;6.40;99.90;;;;;;4988768;28;20035;-61
2021/01/30 01:57:19;;;;;;;19.15;7.57;;;6.30;99.90;;;;;;4992748;28;20487;-62
2021/01/30 01:59:54;;;;;;;18.23;7.90;;;6.30;99.90;;;;;;4999459;28;20551;-59
2021/01/30 02:02:21;;;;;;;14.85;8.23;;;6.30;99.90;;;;;;4992518;28;20052;-62
2021/01/30 02:05:11;;;;;;;15.80;8.18;;;6.30;99.90;;;;;;4994315;28;20037;-62
2021/01/30 02:07:42;;;;;;;15.63;7.90;;;6.30;99.90;;;;;;4991249;28;20056;-61
2021/01/30 02:10:21;;;;;;;18.40;8.30;;;6.30;99.90;;;;;;4991678;28;20177;-62
2021/01/30 02:12:48;;;;;;;14.63;9.27;;;6.30;99.90;;;;;;4994584;28;20577;-60
2021/01/30 02:15:17;;;;;;;15.88;9.35;;;6.20;99.90;;;;;;5002663;28;20032;-61
2021/01/30 02:18:05;;;;;;;21.08;9.63;;;6.30;99.90;;;;;;4981382;28;20034;-59
2021/01/30 02:20:37;;;;;;;16.92;9.05;;;6.30;99.90;;;;;;4999628;28;20492;-61
2021/01/30 02:23:12;;;;;;;22.10;10.18;;;6.30;99.90;;;;;;4999541;28;20037;-58
2021/01/30 02:25:56;;;;;;;18.48;9.57;;;6.30;99.90;;;;;;4993631;28;20034;-59
2021/01/30 02:29:00;;;;;;;17.65;9.10;;;6.30;99.90;;;;;;4982058;28;20525;-61
2021/01/30 02:31:44;;;;;;;16.48;8.73;;;6.30;99.90;;;;;;4993835;28;20023;-58
2021/01/30 02:34:46;;;;;;;16.27;9.07;;;6.30;99.90;;;;;;5001180;28;20038;-59
2021/01/30 02:37:37;;;;;;;12.98;8.27;;;6.30;99.90;;;;;;4997701;28;20034;-59
2021/01/30 02:40:12;;;;;;;23.80;9.38;;;6.20;99.90;;;;;;4996038;28;20025;-62
2021/01/30 02:42:46;;;;;;;19.60;8.75;;;6.20;99.90;;;;;;4989606;28;20031;-60
2021/01/30 02:45:15;;;;;;;;;;;6.20;99.90;;;;;;4996711;28;20427;-59
2021/01/30 02:47:45;;;;;;;20.73;11.50;;;6.20;99.90;;;;;;4995610;28;20302;-62
2021/01/30 02:50:24;;;;;;;21.67;12.95;;;6.20;99.90;;;;;;4999327;28;20080;-63
2021/01/30 02:52:53;;;;;;;23.67;13.45;;;6.00;99.90;;;;;;5001359;28;20034;-62
2021/01/30 02:55:21;;;;;;;23.55;12.07;;;5.90;99.90;;;;;;5002044;28;20049;-62
2021/01/30 02:57:47;;;;;;;29.30;12.77;;;5.90;99.90;;;;;;4988746;28;20037;-60
2021/01/30 03:00:18;;;;;;;29.55;11.68;;;5.80;99.90;;;;;;4997493;28;20850;-60
2021/01/30 03:02:44;;;;;;;16.90;9.50;;;5.80;99.90;;;;;;4967556;28;20039;-63
2021/01/30 03:05:12;;;;;;;26.15;9.63;;;5.80;99.90;;;;;;4996577;28;20030;-58
2021/01/30 03:07:40;;;;;;;14.40;8.75;;;5.70;99.90;;;;;;4997892;28;20031;-58
2021/01/30 03:10:27;;;;;;;23.60;9.48;;;5.60;99.90;;;;;;4993022;28;20095;-61
2021/01/30 03:13:11;;;;;;;17.40;9.98;;;5.60;99.90;;;;;;4987074;28;20034;-59
2021/01/30 03:15:50;;;;;;;23.37;11.10;;;5.50;99.90;;;;;;4978956;28;20049;-61
2021/01/30 03:18:21;;;;;;;23.83;10.77;;;5.50;99.90;;;;;;4989010;28;20045;-62
2021/01/30 03:20:47;;;;;;;22.98;11.23;;;5.40;99.90;;;;;;4985116;28;20026;-62
2021/01/30 03:23:16;;;;;;;22.55;11.70;;;5.40;99.90;;;;;;4993504;28;20033;-63
2021/01/30 03:25:43;;;;;;;19.38;11.50;;;5.40;99.90;;;;;;5001929;28;20408;-62
2021/01/30 03:28:11;;;;;;;19.75;12.35;;;5.50;99.90;;;;;;4993537;28;20030;-62
2021/01/30 03:30:38;;;;;;;22.42;13.40;;;5.50;99.90;;;;;;4974518;28;20061;-61
2021/01/30 03:33:05;;;;;;;21.63;14.45;;;5.30;99.90;;;;;;4998157;28;20065;-61
2021/01/30 03:35:30;;;;;;;27.45;15.98;;;5.30;99.90;;;;;;4995769;28;20125;-58
2021/01/30 03:37:56;;;;;;;25.98;16.02;;;5.20;99.90;;;;;;4991058;28;20084;-59
2021/01/30 03:40:22;;;;;;;32.45;18.17;;;5.10;99.90;;;;;;4991317;28;20113;-62
2021/01/30 03:42:48;;;;;;;31.08;17.58;;;5.00;99.90;;;;;;4989698;28;20475;-60
2021/01/30 03:45:18;;;;;;;31.50;17.58;;;4.90;99.90;;;;;;4989056;28;20027;-60
2021/01/30 03:47:44;;;;;;;38.97;19.38;;;4.80;99.90;;;;;;4987986;28;20030;-62
2021/01/30 03:50:11;;;;;;;29.80;18.70;;;4.80;99.90;;;;;;4989394;28;20027;-57
2021/01/30 03:52:37;;;;;;;29.40;14.90;;;4.70;99.90;;;;;;4992044;28;20633;-60
2021/01/30 03:55:04;;;;;;;30.45;16.90;;;4.50;99.90;;;;;;4991089;28;20026;-59
2021/01/30 03:57:29;;;;;;;30.95;17.77;;;4.40;99.90;;;;;;4991722;28;20710;-58
2021/01/30 03:59:55;;;;;;;30.88;16.00;;;4.30;99.90;;;;;;4990438;28;20053;-60
2021/01/30 04:02:20;;;;;;;28.23;15.95;;;4.20;99.90;;;;;;4998519;28;20031;-54
2021/01/30 04:04:47;;;;;;;24.25;14.63;;;4.00;99.90;;;;;;4983060;28;20145;-60
2021/01/30 04:07:14;;;;;;;20.80;13.52;;;3.90;99.90;;;;;;4989087;28;20038;-55
2021/01/30 04:09:39;;;;;;;25.67;13.43;;;3.80;99.90;;;;;;4990234;28;20058;-60
2021/01/30 04:12:06;;;;;;;23.73;14.52;;;3.80;99.90;;;;;;4991549;28;20030;-56
2021/01/30 04:14:33;;;;;;;25.35;13.65;;;3.70;99.90;;;;;;4988645;28;20038;-59
2021/01/30 04:16:59;;;;;;;27.67;13.98;;;3.60;99.90;;;;;;4989283;28;20161;-58
2021/01/30 04:19:24;;;;;;;23.80;13.00;;;3.60;99.90;;;;;;4990104;28;20026;-58
2021/01/30 04:21:50;;;;;;;26.02;14.88;;;3.60;99.90;;;;;;4990626;28;20041;-61
2021/01/30 04:24:16;;;;;;;29.02;15.90;;;3.60;99.90;;;;;;4990177;28;20470;-60
2021/01/30 04:26:46;;;;;;;23.67;14.02;;;3.50;99.90;;;;;;4998744;28;20030;-56
2021/01/30 04:29:12;;;;;;;24.00;14.73;;;3.50;99.90;;;;;;4990094;28;20030;-55
2021/01/30 04:31:37;;;;;;;26.00;13.05;;;3.50;99.90;;;;;;4990652;28;20406;-58
2021/01/30 04:34:03;;;;;;;20.75;12.65;;;3.50;99.90;;;;;;4973672;28;20392;-60
2021/01/30 04:36:28;;;;;;;23.55;14.93;;;3.50;99.90;;;;;;4991436;28;20027;-62
2021/01/30 04:38:54;;;;;;;24.85;14.07;;;3.50;99.90;;;;;;4990900;28;20025;-60
2021/01/30 04:41:23;;;;;;;21.05;13.75;;;3.40;99.90;;;;;;4987722;28;20018;-58
2021/01/30 04:44:11;;;;;;;25.05;14.88;;;3.40;99.90;;;;;;4993525;28;20026;-59
2021/01/30 04:46:53;;;;;;;24.30;14.20;;;3.50;99.90;;;;;;4989462;28;20050;-57
2021/01/30 04:49:33;;;;;;;29.42;14.93;;;3.50;99.90;;;;;;4996017;28;20029;-58
2021/01/30 04:52:13;;;;;;;25.02;14.82;;;3.50;99.90;;;;;;4990235;28;20018;-59
2021/01/30 04:55:01;;;;;;;21.02;14.65;;;3.50;99.90;;;;;;4989458;28;20030;-60
2021/01/30 04:58:04;;;;;;;25.25;15.63;;;3.50;99.90;;;;;;4982282;28;20053;-61
2021/01/30 05:00:39;;;;;;;26.88;16.02;;;3.50;99.90;;;;;;4989598;28;20076;-64
2021/01/30 05:03:22;;;;;;;28.52;16.20;;;3.60;99.90;;;;;;4985909;28;20065;-62
2021/01/30 05:05:52;;;;;;;20.75;13.02;;;3.60;99.90;;;;;;4984003;28;20033;-58
2021/01/30 05:08:27;;;;;;;21.80;13.57;;;3.50;99.90;;;;;;4997058;28;20053;-61
2021/01/30 05:10:58;;;;;;;23.58;15.27;;;3.50;99.90;;;;;;4993120;28;20511;-60
2021/01/30 05:13:36;;;;;;;19.02;11.80;;;3.50;99.90;;;;;;4992338;28;20022;-63
2021/01/30 05:16:08;;;;;;;19.58;12.77;;;3.50;99.90;;;;;;4995264;28;20026;-58
2021/01/30 05:18:40;;;;;;;17.88;12.07;;;3.50;99.90;;;;;;4993466;28;20517;-57
2021/01/30 05:21:17;;;;;;;13.20;9.50;;;3.50;99.90;;;;;;4999299;28;20430;-61
2021/01/30 05:23:47;;;;;;;14.63;9.70;;;3.40;99.90;;;;;;5004551;28;20026;-62
2021/01/30 05:26:40;;;;;;;15.02;9.88;;;3.20;99.90;;;;;;5000483;28;20029;-63
2021/01/30 05:29:09;;;;;;;15.55;9.85;;;3.20;99.90;;;;;;4995121;28;20033;-63
2021/01/30 05:31:47;;;;;;;15.80;9.20;;;3.20;99.90;;;;;;5005054;28;20084;-60
2021/01/30 05:34:19;;;;;;;15.80;9.65;;;3.20;99.90;;;;;;4992958;28;20080;-63
2021/01/30 05:36:51;;;;;;;13.95;10.75;;;3.20;99.90;;;;;;4985892;28;20034;-60
2021/01/30 05:39:43;;;;;;;15.25;10.02;;;3.10;99.90;;;;;;4993242;28;20072;-63
2021/01/30 05:42:30;;;;;;;16.95;11.20;;;3.10;99.90;;;;;;4990356;28;20022;-62
2021/01/30 05:45:18;;;;;;;16.33;11.48;;;3.10;99.90;;;;;;4968555;28;20515;-63
2021/01/30 05:47:50;;;;;;;16.30;11.27;;;3.10;99.90;;;;;;4991223;28;20030;-61
2021/01/30 05:50:18;;;;;;;12.15;8.90;;;3.10;99.90;;;;;;4993970;28;20551;-59
2021/01/30 05:52:43;;;;;;;11.75;8.85;;;3.00;99.90;;;;;;4989515;28;20037;-61
2021/01/30 05:55:23;;;;;;;12.40;8.90;;;3.00;99.90;;;;;;5013077;28;20023;-63
2021/01/30 05:57:49;;;;;;;14.52;10.13;;;3.00;99.90;;;;;;4979390;28;20034;-63
2021/01/30 06:00:19;;;;;;;18.10;10.80;;;3.00;99.90;;;;;;4995124;28;20080;-63
2021/01/30 06:03:05;;;;;;;15.13;11.02;;;2.90;99.90;;;;;;4993985;28;20042;-63
2021/01/30 06:05:43;;;;;;;15.57;10.45;;;2.90;99.90;;;;;;4991101;28;20027;-63
2021/01/30 06:08:24;;;;;;;17.67;11.05;;;2.90;99.90;;;;;;4991987;28;20026;-61
2021/01/30 06:11:07;;;;;;;14.13;9.95;;;2.80;99.90;;;;;;4975872;28;20834;-63
2021/01/30 06:13:33;;;;;;;12.45;9.52;;;2.80;99.90;;;;;;4986497;28;20046;-64
2021/01/30 06:16:02;;;;;;;15.38;10.77;;;2.80;99.90;;;;;;5006992;28;20030;-62
2021/01/30 06:18:37;;;;;;;16.70;11.55;;;2.80;99.90;;;;;;4992163;28;20127;-60
2021/01/30 06:21:08;;;;;;;18.48;11.77;;;2.80;99.90;;;;;;5001651;28;20105;-64
2021/01/30 06:23:34;;;;;;;16.60;11.75;;;2.80;99.90;;;;;;4992472;28;20045;-59
2021/01/30 06:26:15;;;;;;;13.75;9.40;;;2.80;99.90;;;;;;4992667;28;20085;-60
2021/01/30 06:28:45;;;;;;;13.27;8.95;;;2.80;99.90;;;;;;5001397;28;20037;-63
2021/01/30 06:31:18;;;;;;;12.40;9.15;;;2.80;99.90;;;;;;4991671;28;20053;-63
2021/01/30 06:33:47;;;;;;;11.13;7.97;;;2.80;99.90;;;;;;4993094;28;20030;-61
2021/01/30 06:36:21;;;;;;;14.15;10.00;;;2.70;99.90;;;;;;4992342;28;20081;-63
2021/01/30 06:38:51;;;;;;;12.88;8.48;;;2.80;99.90;;;;;;4992231;28;20128;-61
2021/01/30 06:41:27;;;;;;;11.95;8.30;;;2.70;99.90;;;;;;4993449;28;20038;-62
2021/01/30 06:44:19;;;;;;;11.02;7.55;;;2.60;99.90;;;;;;4986948;28;20030;-60
2021/01/30 06:47:06;;;;;;;13.65;9.00;;;2.60;99.90;;;;;;4989299;28;20030;-62
2021/01/30 06:49:53;;;;;;;14.18;8.30;;;2.60;99.90;;;;;;4992995;28;20052;-61
2021/01/30 06:52:23;;;;;;;14.82;8.63;;;2.50;99.90;;;;;;4996673;28;20138;-62
2021/01/30 06:55:10;;;;;;;14.70;8.48;;;2.40;99.90;;;;;;4958738;28;20498;-63
2021/01/30 06:57:43;;;;;;;11.75;7.97;;;2.50;99.90;;;;;;4990347;28;20475;-57
2021/01/30 07:00:17;;;;;;;12.95;8.40;;;2.40;99.90;;;;;;4991514;28;20029;-64
2021/01/30 07:02:46;;;;;;;12.35;8.65;;;2.40;99.90;;;;;;4995577;28;20029;-62
2021/01/30 07:05:15;;;;;;;11.05;7.25;;;2.40;99.90;;;;;;4998508;28;20101;-63
2021/01/30 07:08:18;;;;;;;11.25;7.95;;;2.40;99.90;;;;;;5004972;28;20026;-61
2021/01/30 07:11:05;;;;;;;12.88;8.23;;;2.40;99.90;;;;;;4991518;28;20065;-63
2021/01/30 07:13:42;;;;;;;12.02;7.85;;;2.30;99.90;;;;;;4989854;28;20479;-60
2021/01/30 07:16:27;;;;;;;10.73;7.40;;;2.40;99.90;;;;;;4991422;28;20026;-61
2021/01/30 07:19:28;;;;;;;12.18;7.15;;;2.30;99.90;;;;;;5004088;28;20033;-62
2021/01/30 07:22:04;;;;;;;10.60;7.20;;;2.30;99.90;;;;;;4987285;28;20037;-63
2021/01/30 07:24:35;;;;;;;11.75;8.00;;;2.30;99.90;;;;;;4982209;28;20156;-60
2021/01/30 07:27:10;;;;;;;12.50;8.18;;;2.30;99.90;;;;;;4999134;28;20054;-59
2021/01/30 07:29:42;;;;;;;11.85;8.10;;;2.30;99.90;;;;;;4989674;28;20771;-57
2021/01/30 07:32:28;;;;;;;12.05;7.97;;;2.20;99.90;;;;;;4990310;28;20388;-58
2021/01/30 07:34:59;;;;;;;12.95;9.10;;;2.20;99.90;;;;;;4994959;28;20065;-62
2021/01/30 07:37:55;;;;;;;13.27;8.68;;;2.20;99.90;;;;;;4989780;28;20105;-62
2021/01/30 07:40:57;;;;;;;13.40;9.45;;;2.10;99.90;;;;;;4987428;28;20034;-61
2021/01/30 07:43:27;;;;;;;13.52;8.85;;;2.10;99.90;;;;;;4988553;28;20026;-62
2021/01/30 07:46:15;;;;;;;13.52;9.50;;;2.10;99.90;;;;;;4991101;28;20033;-62
2021/01/30 07:48:56;;;;;;;14.82;9.93;;;2.10;99.90;;;;;;4995126;28;20022;-63
2021/01/30 07:51:59;;;;;;;13.98;9.25;;;2.20;99.90;;;;;;4992901;28;20029;-61
2021/01/30 07:54:25;;;;;;;13.38;9.27;;;2.20;99.90;;;;;;4937522;28;20042;-61
2021/01/30 07:57:02;;;;;;;14.70;10.20;;;2.20;99.90;;;;;;4986582;28;20101;-61
2021/01/30 07:59:46;;;;;;;13.57;9.98;;;2.20;99.90;;;;;;4996619;28;20026;-62
2021/01/30 08:02:30;;;;;;;14.48;10.07;;;2.10;99.90;;;;;;4994016;28;20027;-61
2021/01/30 08:05:25;;;;;;;14.60;10.43;;;2.10;99.90;;;;;;4991287;28;20491;-63
2021/01/30 08:08:12;;;;;;;17.13;11.40;;;2.10;99.90;;;;;;5000089;28;20084;-61
2021/01/30 08:11:30;;;;;;;16.98;11.32;;;2.10;99.90;;;;;;4994482;28;21066;-60
2021/01/30 08:14:20;;;;;;;17.92;11.93;;;2.10;99.90;;;;;;4989006;28;20133;-59
2021/01/30 08:16:49;;;;;;;16.90;12.18;;;2.10;99.90;;;;;;4986027;28;20085;-66
2021/01/30 08:19:39;;;;;;;17.30;12.15;;;2.10;99.90;;;;;;4985327;28;20041;-61
2021/01/30 08:22:12;;;;;;;18.52;12.45;;;2.10;99.90;;;;;;4992825;28;20023;-60
2021/01/30 08:24:51;;;;;;;22.23;13.32;;;2.10;99.90;;;;;;5002434;28;20485;-61
2021/01/30 08:27:24;;;;;;;22.13;13.55;;;2.10;99.90;;;;;;4992138;28;20046;-61
2021/01/30 08:29:55;;;;;;;22.45;14.88;;;2.10;99.90;;;;;;4986224;28;20034;-61
2021/01/30 08:32:23;;;;;;;21.05;14.50;;;2.10;99.90;;;;;;4990342;28;20033;-61
2021/01/30 08:34:50;;;;;;;21.17;14.73;;;2.20;99.90;;;;;;4993109;28;20138;-62
2021/01/30 08:37:15;;;;;;;21.65;13.90;;;2.20;99.90;;;;;;4990806;28;20092;-63
2021/01/30 08:40:12;;;;;;;21.55;13.38;;;2.20;99.90;;;;;;4990565;28;20060;-60
2021/01/30 08:42:59;;;;;;;19.15;13.25;;;2.20;99.90;;;;;;4989328;28;20116;-60
2021/01/30 08:45:33;;;;;;;23.15;14.57;;;2.30;99.90;;;;;;4989739;28;20058;-62
2021/01/30 08:48:17;;;;;;;21.60;14.05;;;2.30;99.90;;;;;;4982698;28;20037;-63
2021/01/30 08:50:47;;;;;;;21.87;15.93;;;2.30;99.90;;;;;;5001949;28;20044;-60
2021/01/30 08:53:22;;;;;;;25.65;15.75;;;2.40;99.90;;;;;;4996757;28;20274;-61
2021/01/30 08:56:06;;;;;;;23.58;15.55;;;2.40;99.90;;;;;;4982634;28;20054;-61
2021/01/30 08:58:37;;;;;;;21.85;14.57;;;2.40;99.90;;;;;;4953973;28;20050;-60
2021/01/30 09:01:21;;;;;;;23.75;14.52;;;2.40;99.90;;;;;;5000957;28;20053;-63
2021/01/30 09:03:48;;;;;;;22.87;15.37;;;2.40;99.90;;;;;;4990644;28;20085;-63
2021/01/30 09:06:38;;;;;;;24.65;15.63;;;2.50;99.90;;;;;;4989742;28;20261;-62
2021/01/30 09:09:11;;;;;;;22.25;14.90;;;2.50;99.90;;;;;;4987902;28;20026;-62
2021/01/30 09:11:40;;;;;;;22.52;15.07;;;2.50;99.90;;;;;;4987150;28;20515;-58
2021/01/30 09:14:32;;;;;;;25.33;16.35;;;2.50;99.90;;;;;;4995405;28;20034;-61
2021/01/30 09:16:57;;;;;;;24.80;15.05;;;2.50;99.90;;;;;;4986724;28;20041;-61
2021/01/30 09:19:47;;;;;;;26.10;16.95;;;2.50;99.90;;;;;;4988962;28;20026;-62
2021/01/30 09:22:23;;;;;;;24.33;15.98;;;2.50;99.90;;;;;;4984791;28;20388;-61
2021/01/30 09:24:58;;;;;;;29.10;16.35;;;2.40;99.90;;;;;;4994389;28;20057;-62
2021/01/30 09:27:45;;;;;;;22.88;15.98;;;2.40;99.90;;;;;;4982129;28;20785;-62
2021/01/30 09:30:31;;;;;;;26.23;15.85;;;2.40;99.90;;;;;;4995660;28;20033;-58
2021/01/30 09:32:58;;;;;;;24.13;16.30;;;2.50;99.90;;;;;;4977140;28;20463;-60
2021/01/30 09:35:32;;;;;;;20.63;14.70;;;2.50;99.90;;;;;;4989179;28;20031;-59
2021/01/30 09:37:57;;;;;;;21.38;14.45;;;2.40;99.90;;;;;;4989174;28;20018;-60
2021/01/30 09:40:30;;;;;;;20.58;13.18;;;2.40;99.90;;;;;;4991750;28;20121;-59
2021/01/30 09:43:01;;;;;;;20.40;13.68;;;2.50;99.90;;;;;;4988877;28;20080;-56
2021/01/30 09:45:28;;;;;;;20.73;13.82;;;2.50;99.90;;;;;;4984340;28;20089;-59
2021/01/30 09:47:56;;;;;;;20.50;13.68;;;2.50;99.90;;;;;;4983041;28;20056;-61
2021/01/30 09:50:28;;;;;;;15.50;10.35;;;2.60;99.90;;;;;;5002195;28;20032;-62
2021/01/30 09:52:58;;;;;;;17.27;11.60;;;2.60;99.90;;;;;;4990633;28;20058;-61
2021/01/30 09:55:25;;;;;;;18.15;11.38;;;2.70;99.90;;;;;;4997435;28;20026;-62
2021/01/30 09:57:58;;;;;;;17.90;12.00;;;2.60;99.90;;;;;;4940676;28;22241;-59
2021/01/30 10:00:45;;;;;;;17.08;11.50;;;2.50;99.90;;;;;;4995559;28;20048;-58
2021/01/30 10:03:24;;;;;;;18.38;12.20;;;2.60;99.90;;;;;;4993825;28;20030;-59
2021/01/30 10:05:53;;;;;;;17.85;10.90;;;2.70;99.90;;;;;;4984916;28;20066;-62
2021/01/30 10:08:29;;;;;;;16.35;10.73;;;2.70;99.90;;;;;;5000675;28;20053;-58
2021/01/30 10:11:14;;;;;;;17.33;11.25;;;2.80;99.90;;;;;;4987226;28;20654;-61
2021/01/30 10:13:44;;;;;;;15.95;10.13;;;2.80;99.90;;;;;;4992264;28;20117;-60
2021/01/30 10:16:18;;;;;;;13.75;9.68;;;2.90;99.90;;;;;;4998097;28;20026;-61
2021/01/30 10:18:45;;;;;;;;;;;3.00;99.90;;;;;;4994329;28;20509;-60
2021/01/30 10:21:11;;;;;;;13.50;10.13;;;3.00;99.90;;;;;;5003492;28;20340;-60
2021/01/30 10:23:45;;;;;;;15.32;9.35;;;3.10;99.90;;;;;;4997106;28;20072;-57
2021/01/30 10:26:22;;;;;;;16.48;10.27;;;3.20;99.90;;;;;;4992507;28;20032;-59
2021/01/30 10:28:51;;;;;;;15.60;11.25;;;3.10;99.90;;;;;;4994862;28;20045;-64
2021/01/30 10:31:31;;;;;;;15.00;9.98;;;3.10;99.90;;;;;;4989396;28;20038;-58
2021/01/30 10:34:14;;;;;;;14.50;10.05;;;3.30;99.90;;;;;;4992360;28;20399;-57
2021/01/30 10:36:47;;;;;;;16.55;11.05;;;3.30;99.90;;;;;;4988940;28;20045;-60
2021/01/30 10:39:13;;;;;;;14.00;9.30;;;3.30;99.90;;;;;;4991370;28;20100;-60
2021/01/30 10:41:40;;;;;;;14.77;10.38;;;3.30;99.90;;;;;;4997026;28;20034;-56
2021/01/30 10:44:07;;;;;;;12.93;9.50;;;3.40;99.90;;;;;;4995628;28;20061;-61
2021/01/30 10:46:32;;;;;;;15.13;10.00;;;3.30;99.90;;;;;;5007338;28;20026;-59
2021/01/30 10:49:08;;;;;;;16.35;10.98;;;3.30;99.90;;;;;;4994652;28;20100;-58
2021/01/30 10:51:36;;;;;;;14.73;9.40;;;3.40;99.90;;;;;;4993618;28;20117;-59
2021/01/30 10:54:18;;;;;;;16.23;10.80;;;3.40;99.90;;;;;;4980345;28;20555;-60
2021/01/30 10:56:59;;;;;;;14.18;9.55;;;3.30;99.90;;;;;;4994521;28;20029;-62
2021/01/30 10:59:25;;;;;;;16.92;9.65;;;3.20;99.90;;;;;;4957551;28;20069;-61
2021/01/30 11:01:51;;;;;;;17.67;11.10;;;3.30;99.90;;;;;;4991150;28;20030;-59
2021/01/30 11:04:27;;;;;;;12.93;8.82;;;3.30;99.90;;;;;;4993103;28;20118;-59
2021/01/30 11:07:00;;;;;;;13.45;9.38;;;3.40;99.90;;;;;;4992974;28;20042;-60
2021/01/30 11:09:31;;;;;;;13.20;9.30;;;3.40;99.90;;;;;;4989512;28;20589;-62
2021/01/30 11:12:23;;;;;;;14.02;9.05;;;3.40;99.90;;;;;;4994778;28;20026;-58
2021/01/30 11:14:48;;;;;;;13.00;9.40;;;3.50;99.90;;;;;;4989877;28;20026;-60
2021/01/30 11:17:35;;;;;;;12.80;9.25;;;3.60;99.90;;;;;;4987373;28;20046;-61
2021/01/30 11:20:00;;;;;;;13.05;9.32;;;3.40;99.90;;;;;;4991513;28;20042;-60
2021/01/30 11:22:28;;;;;;;11.20;8.88;;;3.40;99.90;;;;;;4999132;28;20095;-60
2021/01/30 11:25:10;;;;;;;11.63;8.65;;;3.40;99.90;;;;;;4991214;28;20495;-60
2021/01/30 11:27:40;;;;;;;10.48;7.93;;;3.50;99.90;;;;;;4980317;28;20045;-62
2021/01/30 11:30:15;;;;;;;11.05;8.00;;;3.30;99.90;;;;;;4990637;28;20062;-58
2021/01/30 11:32:50;;;;;;;10.88;7.63;;;3.20;99.90;;;;;;4990956;28;20034;-61
2021/01/30 11:35:37;;;;;;;10.38;7.55;;;3.20;99.90;;;;;;4991273;28;20113;-58
2021/01/30 11:38:05;;;;;;;9.40;6.70;;;3.40;99.90;;;;;;4989756;28;20031;-60
2021/01/30 11:40:31;;;;;;;8.60;5.53;;;3.20;99.90;;;;;;4991043;28;20395;-63
2021/01/30 11:42:56;;;;;;;7.20;5.05;;;3.30;99.90;;;;;;4975971;28;20023;-63
2021/01/30 11:45:22;;;;;;;6.20;4.68;;;3.30;99.90;;;;;;4974023;28;20488;-60
2021/01/30 11:47:47;;;;;;;7.50;4.82;;;3.30;99.90;;;;;;4992921;28;20037;-61
2021/01/30 11:50:13;;;;;;;28.05;15.63;;;3.30;99.90;;;;;;4998054;28;20092;-62
2021/01/30 11:52:38;;;;;;;6.72;4.55;;;3.30;99.90;;;;;;4992015;28;20391;-61
2021/01/30 11:55:05;;;;;;;5.75;4.25;;;3.40;99.90;;;;;;5001320;28;20034;-60
2021/01/30 11:57:30;;;;;;;5.68;3.72;;;3.50;99.90;;;;;;4993239;28;20045;-59
2021/01/30 11:59:56;;;;;;;6.55;3.35;;;3.40;99.90;;;;;;4971359;28;20043;-60
2021/01/30 12:02:33;;;;;;;6.07;3.95;;;3.50;99.90;;;;;;4992233;28;20022;-63
2021/01/30 12:04:59;;;;;;;4.47;2.88;;;3.40;99.90;;;;;;4986044;28;20030;-61
2021/01/30 12:07:24;;;;;;;5.05;3.25;;;3.40;99.90;;;;;;4991514;28;20054;-63
2021/01/30 12:09:50;;;;;;;4.68;3.63;;;3.30;99.90;;;;;;4990213;28;20026;-60
2021/01/30 12:12:16;;;;;;;10.20;8.05;;;3.50;99.90;;;;;;4990889;28;20479;-59
2021/01/30 12:14:42;;;;;;;4.70;3.30;;;3.50;99.90;;;;;;5008082;28;20030;-59
2021/01/30 12:17:12;;;;;;;3.30;2.50;;;3.50;99.90;;;;;;4981551;28;20468;-59
2021/01/30 12:19:37;;;;;;;4.45;2.50;;;3.60;99.90;;;;;;4996151;28;20030;-58
2021/01/30 12:22:03;;;;;;;3.17;2.47;;;3.60;99.90;;;;;;5000112;28;20557;-62
2021/01/30 12:24:29;;;;;;;2.55;1.88;;;3.70;99.90;;;;;;4978759;28;20052;-60
2021/01/30 12:26:54;;;;;;;3.10;2.13;;;3.70;99.90;;;;;;4994266;28;20026;-59
2021/01/30 12:29:20;;;;;;;3.13;2.50;;;3.70;99.90;;;;;;4992118;28;20049;-62
2021/01/30 12:31:45;;;;;;;3.28;2.13;;;3.70;99.90;;;;;;4997850;28;20104;-61
2021/01/30 12:34:11;;;;;;;3.47;2.30;;;3.60;99.90;;;;;;5000063;28;20515;-60
2021/01/30 12:36:36;;;;;;;4.03;2.38;;;3.60;99.90;;;;;;4988224;28;20027;-60
2021/01/30 12:39:03;;;;;;;4.32;2.10;;;3.50;99.90;;;;;;4995584;28;20029;-62
2021/01/30 12:41:29;;;;;;;2.80;2.00;;;3.60;99.90;;;;;;4987729;28;20036;-61
2021/01/30 12:43:54;;;;;;;4.72;2.00;;;3.60;99.90;;;;;;4988462;28;20422;-56
2021/01/30 12:46:20;;;;;;;3.42;2.08;;;3.80;99.90;;;;;;4989267;28;20018;-62
2021/01/30 12:48:45;;;;;;;3.80;2.50;;;3.80;99.90;;;;;;4995952;28;20033;-62
2021/01/30 12:51:11;;;;;;;3.30;2.58;;;3.90;99.90;;;;;;4999460;28;20372;-59
2021/01/30 12:53:37;;;;;;;14.93;8.57;;;4.10;99.90;;;;;;4987985;28;21008;-58
2021/01/30 12:56:03;;;;;;;3.67;2.00;;;4.00;99.90;;;;;;4989061;28;20052;-62
2021/01/30 12:58:29;;;;;;;2.72;2.00;;;4.10;99.90;;;;;;4964114;28;20539;-60
2021/01/30 13:00:56;;;;;;;4.40;3.05;;;4.20;99.90;;;;;;4981579;28;20030;-60
2021/01/30 13:03:23;;;;;;;6.38;2.58;;;4.30;99.90;;;;;;4976742;28;20037;-59
2021/01/30 13:05:50;;;;;;;3.00;2.05;;;4.40;99.90;;;;;;4972476;28;20038;-58
2021/01/30 13:08:17;;;;;;;2.65;1.70;;;4.30;99.90;;;;;;4981173;28;20095;-60
2021/01/30 13:10:43;;;;;;;3.63;2.10;;;4.30;99.90;;;;;;4982199;28;20081;-58
2021/01/30 13:13:09;;;;;;;3.75;2.53;;;3.90;99.90;;;;;;4978622;28;20515;-60
2021/01/30 13:15:35;;;;;;;3.15;2.00;;;4.10;99.90;;;;;;4976079;28;20036;-60